sensor_id;sensor_type;location;lat;lon;timestamp;temperature;humidity
13198;DHT22;6664;52.514;13.440;2022-07-18T00:01:22;18.30;50.60
13198;DHT22;6664;52.514;13.440;2022-07-18T00:03:49;18.40;49.70
13198;DHT22;6664;52.514;13.440;2022-07-18T00:06:15;18.40;49.30
13198;DHT22;6664;52.514;13.440;2022-07-18T00:08:44;18.40;48.80
13198;DHT22;6664;52.514;13.440;2022-07-18T00:11:11;18.50;48.80
13198;DHT22;6664;52.514;13.440;2022-07-18T00:13:41;18.40;48.80
13198;DHT22;6664;52.514;13.440;2022-07-18T00:16:08;18.50;48.60
13198;DHT22;6664;52.514;13.440;2022-07-18T00:18:35;18.40;48.70
13198;DHT22;6664;52.514;13.440;2022-07-18T00:21:02;18.50;48.80
13198;DHT22;6664;52.514;13.440;2022-07-18T00:23:33;18.40;48.70
13198;DHT22;6664;52.514;13.440;2022-07-18T00:26:00;18.40;48.70
13198;DHT22;6664;52.514;13.440;2022-07-18T00:28:27;18.50;48.70
13198;DHT22;6664;52.514;13.440;2022-07-18T00:30:54;18.40;48.50
13198;DHT22;6664;52.514;13.440;2022-07-18T00:33:21;18.50;48.80
13198;DHT22;6664;52.514;13.440;2022-07-18T00:35:48;18.40;48.70
13198;DHT22;6664;52.514;13.440;2022-07-18T00:38:15;18.40;48.70
13198;DHT22;6664;52.514;13.440;2022-07-18T00:40:45;18.40;48.70
13198;DHT22;6664;52.514;13.440;2022-07-18T00:43:15;18.40;48.70
13198;DHT22;6664;52.514;13.440;2022-07-18T00:45:48;18.30;48.70
13198;DHT22;6664;52.514;13.440;2022-07-18T00:48:16;18.30;49.00
13198;DHT22;6664;52.514;13.440;2022-07-18T00:50:43;18.30;49.40
13198;DHT22;6664;52.514;13.440;2022-07-18T00:53:13;18.20;49.60
13198;DHT22;6664;52.514;13.440;2022-07-18T00:55:42;18.10;49.90
13198;DHT22;6664;52.514;13.440;2022-07-18T00:58:10;18.10;50.00
13198;DHT22;6664;52.514;13.440;2022-07-18T01:00:40;17.90;50.40
13198;DHT22;6664;52.514;13.440;2022-07-18T01:03:26;17.90;50.80
13198;DHT22;6664;52.514;13.440;2022-07-18T01:05:54;17.90;51.50
13198;DHT22;6664;52.514;13.440;2022-07-18T01:08:21;17.90;50.90
13198;DHT22;6664;52.514;13.440;2022-07-18T01:10:50;17.90;51.00
13198;DHT22;6664;52.514;13.440;2022-07-18T01:13:18;17.80;51.10
13198;DHT22;6664;52.514;13.440;2022-07-18T01:15:44;17.70;51.50
13198;DHT22;6664;52.514;13.440;2022-07-18T01:18:11;17.60;51.80
13198;DHT22;6664;52.514;13.440;2022-07-18T01:20:38;17.60;52.10
13198;DHT22;6664;52.514;13.440;2022-07-18T01:23:05;17.50;52.30
13198;DHT22;6664;52.514;13.440;2022-07-18T01:25:32;17.40;53.10
13198;DHT22;6664;52.514;13.440;2022-07-18T01:27:59;17.30;53.00
13198;DHT22;6664;52.514;13.440;2022-07-18T01:30:28;17.20;54.00
13198;DHT22;6664;52.514;13.440;2022-07-18T01:32:58;17.00;54.00
13198;DHT22;6664;52.514;13.440;2022-07-18T01:35:25;16.90;55.50
13198;DHT22;6664;52.514;13.440;2022-07-18T01:37:55;16.80;56.70
13198;DHT22;6664;52.514;13.440;2022-07-18T01:40:25;16.70;56.80
13198;DHT22;6664;52.514;13.440;2022-07-18T01:42:52;16.50;57.40
13198;DHT22;6664;52.514;13.440;2022-07-18T01:45:20;16.40;57.30
13198;DHT22;6664;52.514;13.440;2022-07-18T01:47:49;16.40;58.60
13198;DHT22;6664;52.514;13.440;2022-07-18T01:50:16;16.30;59.50
13198;DHT22;6664;52.514;13.440;2022-07-18T01:52:43;16.50;58.30
13198;DHT22;6664;52.514;13.440;2022-07-18T01:55:12;16.60;58.00
13198;DHT22;6664;52.514;13.440;2022-07-18T01:57:42;16.50;57.60
13198;DHT22;6664;52.514;13.440;2022-07-18T02:00:11;16.50;58.00
13198;DHT22;6664;52.514;13.440;2022-07-18T02:02:41;16.40;58.20
13198;DHT22;6664;52.514;13.440;2022-07-18T02:05:08;16.50;58.00
13198;DHT22;6664;52.514;13.440;2022-07-18T02:07:40;16.40;58.10
13198;DHT22;6664;52.514;13.440;2022-07-18T02:10:15;16.50;57.90
13198;DHT22;6664;52.514;13.440;2022-07-18T02:12:42;16.60;57.50
13198;DHT22;6664;52.514;13.440;2022-07-18T02:15:13;16.50;57.60
13198;DHT22;6664;52.514;13.440;2022-07-18T02:17:40;16.30;58.30
13198;DHT22;6664;52.514;13.440;2022-07-18T02:20:10;16.20;58.90
13198;DHT22;6664;52.514;13.440;2022-07-18T02:22:37;16.10;59.40
13198;DHT22;6664;52.514;13.440;2022-07-18T02:25:06;16.00;59.50
13198;DHT22;6664;52.514;13.440;2022-07-18T02:27:35;15.90;60.40
13198;DHT22;6664;52.514;13.440;2022-07-18T02:30:03;15.80;61.30
13198;DHT22;6664;52.514;13.440;2022-07-18T02:32:30;15.70;61.90
13198;DHT22;6664;52.514;13.440;2022-07-18T02:34:57;15.50;63.70
13198;DHT22;6664;52.514;13.440;2022-07-18T02:37:24;15.40;65.00
13198;DHT22;6664;52.514;13.440;2022-07-18T02:39:51;15.30;66.00
13198;DHT22;6664;52.514;13.440;2022-07-18T02:42:18;15.20;66.50
13198;DHT22;6664;52.514;13.440;2022-07-18T02:44:45;15.10;66.90
13198;DHT22;6664;52.514;13.440;2022-07-18T02:47:12;15.00;67.50
13198;DHT22;6664;52.514;13.440;2022-07-18T02:49:39;14.90;68.30
13198;DHT22;6664;52.514;13.440;2022-07-18T02:52:07;14.90;68.80
13198;DHT22;6664;52.514;13.440;2022-07-18T02:54:38;14.80;68.70
13198;DHT22;6664;52.514;13.440;2022-07-18T02:57:05;14.80;69.30
13198;DHT22;6664;52.514;13.440;2022-07-18T02:59:32;14.80;69.50
13198;DHT22;6664;52.514;13.440;2022-07-18T03:02:00;14.80;69.90
13198;DHT22;6664;52.514;13.440;2022-07-18T03:04:29;14.80;70.40
13198;DHT22;6664;52.514;13.440;2022-07-18T03:06:56;14.70;71.60
13198;DHT22;6664;52.514;13.440;2022-07-18T03:09:23;14.60;72.10
13198;DHT22;6664;52.514;13.440;2022-07-18T03:11:55;14.60;73.00
13198;DHT22;6664;52.514;13.440;2022-07-18T03:14:23;14.50;73.60
13198;DHT22;6664;52.514;13.440;2022-07-18T03:16:50;14.50;74.20
13198;DHT22;6664;52.514;13.440;2022-07-18T03:19:20;14.40;75.00
13198;DHT22;6664;52.514;13.440;2022-07-18T03:21:47;14.40;75.60
13198;DHT22;6664;52.514;13.440;2022-07-18T03:24:17;14.40;76.20
13198;DHT22;6664;52.514;13.440;2022-07-18T03:26:44;14.30;76.60
13198;DHT22;6664;52.514;13.440;2022-07-18T03:29:14;14.30;77.00
13198;DHT22;6664;52.514;13.440;2022-07-18T03:31:45;14.30;77.60
13198;DHT22;6664;52.514;13.440;2022-07-18T03:34:12;14.20;78.10
13198;DHT22;6664;52.514;13.440;2022-07-18T03:36:39;14.20;78.80
13198;DHT22;6664;52.514;13.440;2022-07-18T03:39:07;14.20;79.20
13198;DHT22;6664;52.514;13.440;2022-07-18T03:41:38;14.20;79.70
13198;DHT22;6664;52.514;13.440;2022-07-18T03:44:07;14.20;79.80
13198;DHT22;6664;52.514;13.440;2022-07-18T03:46:34;14.20;79.90
13198;DHT22;6664;52.514;13.440;2022-07-18T03:49:02;14.20;80.40
13198;DHT22;6664;52.514;13.440;2022-07-18T03:51:29;14.30;80.90
13198;DHT22;6664;52.514;13.440;2022-07-18T03:53:56;14.20;81.10
13198;DHT22;6664;52.514;13.440;2022-07-18T03:56:23;14.30;81.30
13198;DHT22;6664;52.514;13.440;2022-07-18T03:58:50;14.30;80.40
13198;DHT22;6664;52.514;13.440;2022-07-18T04:01:17;14.30;79.40
13198;DHT22;6664;52.514;13.440;2022-07-18T04:03:44;14.40;78.70
13198;DHT22;6664;52.514;13.440;2022-07-18T04:06:13;14.40;78.50
13198;DHT22;6664;52.514;13.440;2022-07-18T04:08:40;14.60;76.80
13198;DHT22;6664;52.514;13.440;2022-07-18T04:11:09;14.70;75.70
13198;DHT22;6664;52.514;13.440;2022-07-18T04:13:36;14.70;75.10
13198;DHT22;6664;52.514;13.440;2022-07-18T04:16:03;14.70;75.60
13198;DHT22;6664;52.514;13.440;2022-07-18T04:18:33;14.80;74.70
13198;DHT22;6664;52.514;13.440;2022-07-18T04:21:07;14.80;75.20
13198;DHT22;6664;52.514;13.440;2022-07-18T04:23:39;14.80;75.90
13198;DHT22;6664;52.514;13.440;2022-07-18T04:26:06;14.90;74.90
13198;DHT22;6664;52.514;13.440;2022-07-18T04:28:36;15.00;74.60
13198;DHT22;6664;52.514;13.440;2022-07-18T04:31:06;14.90;74.50
13198;DHT22;6664;52.514;13.440;2022-07-18T04:33:33;15.00;75.20
13198;DHT22;6664;52.514;13.440;2022-07-18T04:35:59;15.00;75.40
13198;DHT22;6664;52.514;13.440;2022-07-18T04:38:26;15.00;74.80
13198;DHT22;6664;52.514;13.440;2022-07-18T04:40:53;15.00;76.00
13198;DHT22;6664;52.514;13.440;2022-07-18T04:43:22;15.00;74.70
13198;DHT22;6664;52.514;13.440;2022-07-18T04:45:49;15.10;74.60
13198;DHT22;6664;52.514;13.440;2022-07-18T04:48:16;15.10;74.70
13198;DHT22;6664;52.514;13.440;2022-07-18T04:50:43;15.10;75.50
13198;DHT22;6664;52.514;13.440;2022-07-18T04:53:10;15.20;75.90
13198;DHT22;6664;52.514;13.440;2022-07-18T04:55:39;15.20;76.10
13198;DHT22;6664;52.514;13.440;2022-07-18T04:58:06;15.20;75.40
13198;DHT22;6664;52.514;13.440;2022-07-18T05:00:33;15.30;75.10
13198;DHT22;6664;52.514;13.440;2022-07-18T05:03:02;15.30;75.20
13198;DHT22;6664;52.514;13.440;2022-07-18T05:05:29;15.30;74.80
13198;DHT22;6664;52.514;13.440;2022-07-18T05:08:03;15.30;75.10
13198;DHT22;6664;52.514;13.440;2022-07-18T05:10:30;15.40;75.70
13198;DHT22;6664;52.514;13.440;2022-07-18T05:12:57;15.50;75.40
13198;DHT22;6664;52.514;13.440;2022-07-18T05:15:26;15.50;75.50
13198;DHT22;6664;52.514;13.440;2022-07-18T05:17:53;15.50;76.40
13198;DHT22;6664;52.514;13.440;2022-07-18T05:20:22;15.50;76.70
13198;DHT22;6664;52.514;13.440;2022-07-18T05:22:52;15.60;77.30
13198;DHT22;6664;52.514;13.440;2022-07-18T05:25:22;15.60;76.80
13198;DHT22;6664;52.514;13.440;2022-07-18T05:27:50;15.70;76.70
13198;DHT22;6664;52.514;13.440;2022-07-18T05:30:21;15.70;75.40
13198;DHT22;6664;52.514;13.440;2022-07-18T05:32:50;15.80;75.50
13198;DHT22;6664;52.514;13.440;2022-07-18T05:35:18;15.90;74.50
13198;DHT22;6664;52.514;13.440;2022-07-18T05:37:45;16.00;73.00
13198;DHT22;6664;52.514;13.440;2022-07-18T05:40:13;16.10;73.00
13198;DHT22;6664;52.514;13.440;2022-07-18T05:42:41;16.10;72.30
13198;DHT22;6664;52.514;13.440;2022-07-18T05:45:26;16.20;72.20
13198;DHT22;6664;52.514;13.440;2022-07-18T05:47:53;16.30;70.20
13198;DHT22;6664;52.514;13.440;2022-07-18T05:50:22;16.40;71.00
13198;DHT22;6664;52.514;13.440;2022-07-18T05:52:49;16.40;70.60
13198;DHT22;6664;52.514;13.440;2022-07-18T05:55:18;16.50;69.60
13198;DHT22;6664;52.514;13.440;2022-07-18T05:57:45;16.60;69.30
13198;DHT22;6664;52.514;13.440;2022-07-18T06:00:13;16.70;68.30
13198;DHT22;6664;52.514;13.440;2022-07-18T06:02:40;16.90;67.30
13198;DHT22;6664;52.514;13.440;2022-07-18T06:05:08;17.00;66.70
13198;DHT22;6664;52.514;13.440;2022-07-18T06:07:54;17.00;66.40
13198;DHT22;6664;52.514;13.440;2022-07-18T06:10:26;17.20;64.90
13198;DHT22;6664;52.514;13.440;2022-07-18T06:12:56;17.40;64.10
13198;DHT22;6664;52.514;13.440;2022-07-18T06:15:24;17.50;63.60
13198;DHT22;6664;52.514;13.440;2022-07-18T06:17:53;17.70;63.20
13198;DHT22;6664;52.514;13.440;2022-07-18T06:20:20;17.70;62.80
13198;DHT22;6664;52.514;13.440;2022-07-18T06:22:47;17.70;62.40
13198;DHT22;6664;52.514;13.440;2022-07-18T06:25:16;17.80;62.00
13198;DHT22;6664;52.514;13.440;2022-07-18T06:27:44;17.90;61.70
13198;DHT22;6664;52.514;13.440;2022-07-18T06:30:13;18.00;60.50
13198;DHT22;6664;52.514;13.440;2022-07-18T06:32:45;18.10;60.10
13198;DHT22;6664;52.514;13.440;2022-07-18T06:35:15;18.30;59.10
13198;DHT22;6664;52.514;13.440;2022-07-18T06:37:41;18.50;58.40
13198;DHT22;6664;52.514;13.440;2022-07-18T06:40:09;18.50;58.00
13198;DHT22;6664;52.514;13.440;2022-07-18T06:42:36;18.60;57.90
13198;DHT22;6664;52.514;13.440;2022-07-18T06:45:04;18.60;57.60
13198;DHT22;6664;52.514;13.440;2022-07-18T06:47:40;18.70;57.60
13198;DHT22;6664;52.514;13.440;2022-07-18T06:50:08;18.70;57.30
13198;DHT22;6664;52.514;13.440;2022-07-18T06:52:39;18.70;57.10
13198;DHT22;6664;52.514;13.440;2022-07-18T06:55:09;19.00;55.00
13198;DHT22;6664;52.514;13.440;2022-07-18T06:57:40;19.20;54.70
13198;DHT22;6664;52.514;13.440;2022-07-18T07:00:11;19.00;54.10
13198;DHT22;6664;52.514;13.440;2022-07-18T07:02:47;19.40;54.40
13198;DHT22;6664;52.514;13.440;2022-07-18T07:05:18;19.40;54.90
13198;DHT22;6664;52.514;13.440;2022-07-18T07:07:48;19.40;53.90
13198;DHT22;6664;52.514;13.440;2022-07-18T07:10:16;19.50;53.40
13198;DHT22;6664;52.514;13.440;2022-07-18T07:12:49;19.50;53.10
13198;DHT22;6664;52.514;13.440;2022-07-18T07:15:19;19.60;52.90
13198;DHT22;6664;52.514;13.440;2022-07-18T07:17:49;19.50;52.70
13198;DHT22;6664;52.514;13.440;2022-07-18T07:20:17;19.70;51.40
13198;DHT22;6664;52.514;13.440;2022-07-18T07:22:48;19.70;51.00
13198;DHT22;6664;52.514;13.440;2022-07-18T07:25:19;19.70;50.50
13198;DHT22;6664;52.514;13.440;2022-07-18T07:27:49;19.70;50.90
13198;DHT22;6664;52.514;13.440;2022-07-18T07:30:16;19.80;50.20
13198;DHT22;6664;52.514;13.440;2022-07-18T07:32:44;19.80;50.20
13198;DHT22;6664;52.514;13.440;2022-07-18T07:35:15;19.70;49.90
13198;DHT22;6664;52.514;13.440;2022-07-18T07:37:45;19.90;48.50
13198;DHT22;6664;52.514;13.440;2022-07-18T07:40:13;20.00;47.00
13198;DHT22;6664;52.514;13.440;2022-07-18T07:42:43;20.10;47.40
13198;DHT22;6664;52.514;13.440;2022-07-18T07:45:11;20.20;47.20
13198;DHT22;6664;52.514;13.440;2022-07-18T07:47:38;20.20;47.00
13198;DHT22;6664;52.514;13.440;2022-07-18T07:50:06;20.20;46.90
13198;DHT22;6664;52.514;13.440;2022-07-18T07:52:36;20.20;46.90
13198;DHT22;6664;52.514;13.440;2022-07-18T07:55:04;20.30;46.80
13198;DHT22;6664;52.514;13.440;2022-07-18T07:57:34;20.20;46.80
13198;DHT22;6664;52.514;13.440;2022-07-18T08:00:07;20.10;47.20
13198;DHT22;6664;52.514;13.440;2022-07-18T08:02:35;20.30;47.10
13198;DHT22;6664;52.514;13.440;2022-07-18T08:05:05;20.50;46.20
13198;DHT22;6664;52.514;13.440;2022-07-18T08:07:32;20.60;45.40
13198;DHT22;6664;52.514;13.440;2022-07-18T08:09:59;20.70;45.60
13198;DHT22;6664;52.514;13.440;2022-07-18T08:12:28;20.90;45.60
13198;DHT22;6664;52.514;13.440;2022-07-18T08:14:55;21.00;44.70
13198;DHT22;6664;52.514;13.440;2022-07-18T08:17:24;21.10;44.70
13198;DHT22;6664;52.514;13.440;2022-07-18T08:19:51;21.30;43.10
13198;DHT22;6664;52.514;13.440;2022-07-18T08:22:17;21.60;43.20
13198;DHT22;6664;52.514;13.440;2022-07-18T08:24:46;21.90;41.10
13198;DHT22;6664;52.514;13.440;2022-07-18T08:27:13;22.30;40.70
13198;DHT22;6664;52.514;13.440;2022-07-18T08:29:43;22.60;39.10
13198;DHT22;6664;52.514;13.440;2022-07-18T08:32:33;23.00;38.30
13198;DHT22;6664;52.514;13.440;2022-07-18T08:35:00;23.20;36.70
13198;DHT22;6664;52.514;13.440;2022-07-18T08:37:27;23.30;36.80
13198;DHT22;6664;52.514;13.440;2022-07-18T08:39:53;23.30;36.30
13198;DHT22;6664;52.514;13.440;2022-07-18T08:42:25;23.20;36.00
13198;DHT22;6664;52.514;13.440;2022-07-18T08:44:55;23.20;35.90
13198;DHT22;6664;52.514;13.440;2022-07-18T08:47:23;23.20;35.40
13198;DHT22;6664;52.514;13.440;2022-07-18T08:49:56;23.20;36.20
13198;DHT22;6664;52.514;13.440;2022-07-18T08:52:23;23.10;36.30
13198;DHT22;6664;52.514;13.440;2022-07-18T08:55:11;23.00;36.50
13198;DHT22;6664;52.514;13.440;2022-07-18T08:57:50;22.90;36.10
13198;DHT22;6664;52.514;13.440;2022-07-18T09:00:22;22.90;36.30
13198;DHT22;6664;52.514;13.440;2022-07-18T09:02:59;22.90;36.50
13198;DHT22;6664;52.514;13.440;2022-07-18T09:05:27;22.90;36.00
13198;DHT22;6664;52.514;13.440;2022-07-18T09:08:13;23.00;35.90
13198;DHT22;6664;52.514;13.440;2022-07-18T09:10:57;23.00;35.00
13198;DHT22;6664;52.514;13.440;2022-07-18T09:16:11;23.20;34.40
13198;DHT22;6664;52.514;13.440;2022-07-18T09:18:45;23.30;34.60
13198;DHT22;6664;52.514;13.440;2022-07-18T09:21:21;23.30;34.40
13198;DHT22;6664;52.514;13.440;2022-07-18T09:23:51;23.30;34.60
13198;DHT22;6664;52.514;13.440;2022-07-18T09:26:43;23.40;35.50
13198;DHT22;6664;52.514;13.440;2022-07-18T09:29:17;23.50;35.50
13198;DHT22;6664;52.514;13.440;2022-07-18T09:31:54;23.50;35.00
13198;DHT22;6664;52.514;13.440;2022-07-18T09:34:36;23.60;34.60
13198;DHT22;6664;52.514;13.440;2022-07-18T09:37:11;23.80;34.60
13198;DHT22;6664;52.514;13.440;2022-07-18T09:39:40;24.00;34.70
13198;DHT22;6664;52.514;13.440;2022-07-18T09:42:15;24.20;33.80
13198;DHT22;6664;52.514;13.440;2022-07-18T09:44:43;24.40;33.00
13198;DHT22;6664;52.514;13.440;2022-07-18T09:47:25;24.60;32.40
13198;DHT22;6664;52.514;13.440;2022-07-18T09:49:52;24.80;32.50
13198;DHT22;6664;52.514;13.440;2022-07-18T09:52:19;24.90;32.40
13198;DHT22;6664;52.514;13.440;2022-07-18T09:54:46;24.90;31.20
13198;DHT22;6664;52.514;13.440;2022-07-18T09:57:26;24.80;31.80
13198;DHT22;6664;52.514;13.440;2022-07-18T09:59:56;25.00;31.30
13198;DHT22;6664;52.514;13.440;2022-07-18T10:02:23;25.00;30.70
13198;DHT22;6664;52.514;13.440;2022-07-18T10:04:50;25.00;30.50
13198;DHT22;6664;52.514;13.440;2022-07-18T10:07:19;25.10;30.20
13198;DHT22;6664;52.514;13.440;2022-07-18T10:09:46;25.30;30.00
13198;DHT22;6664;52.514;13.440;2022-07-18T10:12:14;24.90;29.70
13198;DHT22;6664;52.514;13.440;2022-07-18T10:14:43;24.80;30.00
13198;DHT22;6664;52.514;13.440;2022-07-18T10:17:10;25.10;30.20
13198;DHT22;6664;52.514;13.440;2022-07-18T10:19:37;25.40;29.50
13198;DHT22;6664;52.514;13.440;2022-07-18T10:22:08;25.20;29.60
13198;DHT22;6664;52.514;13.440;2022-07-18T10:24:39;25.60;28.90
13198;DHT22;6664;52.514;13.440;2022-07-18T10:27:16;25.60;28.60
13198;DHT22;6664;52.514;13.440;2022-07-18T10:30:13;25.90;28.70
13198;DHT22;6664;52.514;13.440;2022-07-18T10:32:41;25.70;28.10
13198;DHT22;6664;52.514;13.440;2022-07-18T10:35:09;25.80;28.20
13198;DHT22;6664;52.514;13.440;2022-07-18T10:37:40;26.10;28.30
13198;DHT22;6664;52.514;13.440;2022-07-18T10:40:23;26.30;27.30
13198;DHT22;6664;52.514;13.440;2022-07-18T10:46:01;26.80;26.70
13198;DHT22;6664;52.514;13.440;2022-07-18T10:51:14;27.50;25.20
13198;DHT22;6664;52.514;13.440;2022-07-18T10:59:15;27.80;24.70
13198;DHT22;6664;52.514;13.440;2022-07-18T11:01:53;27.70;24.60
13198;DHT22;6664;52.514;13.440;2022-07-18T11:04:28;27.60;24.60
13198;DHT22;6664;52.514;13.440;2022-07-18T11:07:14;27.50;24.60
13198;DHT22;6664;52.514;13.440;2022-07-18T11:09:46;27.70;24.70
13198;DHT22;6664;52.514;13.440;2022-07-18T11:12:30;27.60;24.60
13198;DHT22;6664;52.514;13.440;2022-07-18T11:20:36;27.50;24.60
13198;DHT22;6664;52.514;13.440;2022-07-18T11:23:17;28.00;24.70
13198;DHT22;6664;52.514;13.440;2022-07-18T11:25:53;28.30;24.10
13198;DHT22;6664;52.514;13.440;2022-07-18T11:28:27;28.60;23.90
13198;DHT22;6664;52.514;13.440;2022-07-18T11:31:07;28.90;23.10
13198;DHT22;6664;52.514;13.440;2022-07-18T11:33:39;29.10;22.20
13198;DHT22;6664;52.514;13.440;2022-07-18T11:36:08;29.50;21.80
13198;DHT22;6664;52.514;13.440;2022-07-18T11:38:38;30.00;20.80
13198;DHT22;6664;52.514;13.440;2022-07-18T11:41:06;30.20;20.80
13198;DHT22;6664;52.514;13.440;2022-07-18T11:43:35;30.30;19.70
13198;DHT22;6664;52.514;13.440;2022-07-18T11:46:05;29.90;20.00
13198;DHT22;6664;52.514;13.440;2022-07-18T11:48:42;30.00;20.30
13198;DHT22;6664;52.514;13.440;2022-07-18T11:51:10;29.70;20.00
13198;DHT22;6664;52.514;13.440;2022-07-18T11:53:49;29.40;20.10
13198;DHT22;6664;52.514;13.440;2022-07-18T11:56:17;29.60;20.30
13198;DHT22;6664;52.514;13.440;2022-07-18T11:58:45;30.00;19.70
13198;DHT22;6664;52.514;13.440;2022-07-18T12:01:13;30.30;19.40
13198;DHT22;6664;52.514;13.440;2022-07-18T12:03:46;30.40;18.50
13198;DHT22;6664;52.514;13.440;2022-07-18T12:06:23;31.10;17.90
13198;DHT22;6664;52.514;13.440;2022-07-18T12:08:55;31.20;17.40
13198;DHT22;6664;52.514;13.440;2022-07-18T12:11:38;31.40;17.40
13198;DHT22;6664;52.514;13.440;2022-07-18T12:14:17;31.40;16.60
13198;DHT22;6664;52.514;13.440;2022-07-18T12:16:49;31.50;16.30
13198;DHT22;6664;52.514;13.440;2022-07-18T12:19:37;31.80;15.90
13198;DHT22;6664;52.514;13.440;2022-07-18T12:22:09;32.20;15.40
13198;DHT22;6664;52.514;13.440;2022-07-18T12:27:24;33.20;13.60
13198;DHT22;6664;52.514;13.440;2022-07-18T12:30:12;33.40;13.50
13198;DHT22;6664;52.514;13.440;2022-07-18T12:35:19;34.30;12.30
13198;DHT22;6664;52.514;13.440;2022-07-18T12:43:07;33.20;12.40
13198;DHT22;6664;52.514;13.440;2022-07-18T12:45:36;34.00;12.20
13198;DHT22;6664;52.514;13.440;2022-07-18T12:48:08;34.70;11.30
13198;DHT22;6664;52.514;13.440;2022-07-18T12:50:36;35.40;10.50
13198;DHT22;6664;52.514;13.440;2022-07-18T12:53:04;36.70;9.50
13198;DHT22;6664;52.514;13.440;2022-07-18T12:55:31;37.10;8.70
13198;DHT22;6664;52.514;13.440;2022-07-18T12:58:02;37.50;8.10
13198;DHT22;6664;52.514;13.440;2022-07-18T13:00:32;37.50;8.00
13198;DHT22;6664;52.514;13.440;2022-07-18T13:03:02;39.20;7.00
13198;DHT22;6664;52.514;13.440;2022-07-18T13:05:29;41.60;4.00
13198;DHT22;6664;52.514;13.440;2022-07-18T13:07:57;42.20;3.10
13198;DHT22;6664;52.514;13.440;2022-07-18T13:10:24;41.90;2.10
13198;DHT22;6664;52.514;13.440;2022-07-18T13:12:52;41.90;2.00
13198;DHT22;6664;52.514;13.440;2022-07-18T13:15:19;41.20;2.10
13198;DHT22;6664;52.514;13.440;2022-07-18T13:17:48;39.50;3.60
13198;DHT22;6664;52.514;13.440;2022-07-18T13:20:20;38.90;4.40
13198;DHT22;6664;52.514;13.440;2022-07-18T13:22:47;38.00;5.40
13198;DHT22;6664;52.514;13.440;2022-07-18T13:25:20;37.50;6.10
13198;DHT22;6664;52.514;13.440;2022-07-18T13:27:48;36.60;6.70
13198;DHT22;6664;52.514;13.440;2022-07-18T13:30:15;35.90;7.20
13198;DHT22;6664;52.514;13.440;2022-07-18T13:32:44;35.90;7.30
13198;DHT22;6664;52.514;13.440;2022-07-18T13:35:13;36.00;7.90
13198;DHT22;6664;52.514;13.440;2022-07-18T13:37:40;36.60;7.70
13198;DHT22;6664;52.514;13.440;2022-07-18T13:40:10;35.90;7.30
13198;DHT22;6664;52.514;13.440;2022-07-18T13:42:40;35.40;8.20
13198;DHT22;6664;52.514;13.440;2022-07-18T13:45:08;33.90;8.90
13198;DHT22;6664;52.514;13.440;2022-07-18T13:47:35;33.70;10.00
13198;DHT22;6664;52.514;13.440;2022-07-18T13:50:02;34.20;9.70
13198;DHT22;6664;52.514;13.440;2022-07-18T13:52:32;34.30;9.40
13198;DHT22;6664;52.514;13.440;2022-07-18T13:54:59;35.00;9.40
13198;DHT22;6664;52.514;13.440;2022-07-18T13:57:27;37.10;8.10
13198;DHT22;6664;52.514;13.440;2022-07-18T13:59:54;38.30;6.50
13198;DHT22;6664;52.514;13.440;2022-07-18T14:02:21;38.10;5.20
13198;DHT22;6664;52.514;13.440;2022-07-18T14:04:48;39.70;4.30
13198;DHT22;6664;52.514;13.440;2022-07-18T14:07:37;40.10;3.00
13198;DHT22;6664;52.514;13.440;2022-07-18T14:10:07;39.40;3.70
13198;DHT22;6664;52.514;13.440;2022-07-18T14:12:34;38.30;3.90
13198;DHT22;6664;52.514;13.440;2022-07-18T14:15:03;37.40;5.00
13198;DHT22;6664;52.514;13.440;2022-07-18T14:17:32;38.50;4.70
13198;DHT22;6664;52.514;13.440;2022-07-18T14:20:00;41.30;3.10
13198;DHT22;6664;52.514;13.440;2022-07-18T14:22:27;42.30;1.30
13198;DHT22;6664;52.514;13.440;2022-07-18T14:24:54;40.30;1.90
13198;DHT22;6664;52.514;13.440;2022-07-18T14:27:21;41.90;1.90
13198;DHT22;6664;52.514;13.440;2022-07-18T14:29:52;44.00;1.00
13198;DHT22;6664;52.514;13.440;2022-07-18T14:32:19;41.80;1.00
13198;DHT22;6664;52.514;13.440;2022-07-18T14:34:46;40.70;1.00
13198;DHT22;6664;52.514;13.440;2022-07-18T14:37:15;40.70;2.20
13198;DHT22;6664;52.514;13.440;2022-07-18T14:39:43;41.70;1.20
13198;DHT22;6664;52.514;13.440;2022-07-18T14:42:13;40.80;1.90
13198;DHT22;6664;52.514;13.440;2022-07-18T14:44:43;40.60;1.30
13198;DHT22;6664;52.514;13.440;2022-07-18T14:47:10;40.90;2.20
13198;DHT22;6664;52.514;13.440;2022-07-18T14:49:44;42.80;1.00
13198;DHT22;6664;52.514;13.440;2022-07-18T14:52:11;44.50;1.00
13198;DHT22;6664;52.514;13.440;2022-07-18T14:54:38;43.10;1.00
13198;DHT22;6664;52.514;13.440;2022-07-18T14:57:05;43.10;1.00
13198;DHT22;6664;52.514;13.440;2022-07-18T14:59:34;41.70;1.00
13198;DHT22;6664;52.514;13.440;2022-07-18T15:02:03;39.70;2.10
13198;DHT22;6664;52.514;13.440;2022-07-18T15:04:35;39.40;3.00
13198;DHT22;6664;52.514;13.440;2022-07-18T15:07:03;39.10;3.40
13198;DHT22;6664;52.514;13.440;2022-07-18T15:09:30;38.50;4.10
13198;DHT22;6664;52.514;13.440;2022-07-18T15:12:02;37.90;4.60
13198;DHT22;6664;52.514;13.440;2022-07-18T15:14:29;37.40;5.50
13198;DHT22;6664;52.514;13.440;2022-07-18T15:16:56;36.90;5.80
13198;DHT22;6664;52.514;13.440;2022-07-18T15:19:23;35.60;6.80
13198;DHT22;6664;52.514;13.440;2022-07-18T15:21:50;35.60;7.30
13198;DHT22;6664;52.514;13.440;2022-07-18T15:24:18;34.40;8.10
13198;DHT22;6664;52.514;13.440;2022-07-18T15:26:45;32.70;10.40
13198;DHT22;6664;52.514;13.440;2022-07-18T15:29:11;32.30;11.60
13198;DHT22;6664;52.514;13.440;2022-07-18T15:31:41;32.40;11.50
13198;DHT22;6664;52.514;13.440;2022-07-18T15:34:08;31.80;12.90
13198;DHT22;6664;52.514;13.440;2022-07-18T15:36:34;31.40;13.00
13198;DHT22;6664;52.514;13.440;2022-07-18T15:39:01;31.00;13.60
13198;DHT22;6664;52.514;13.440;2022-07-18T15:41:28;31.20;14.10
13198;DHT22;6664;52.514;13.440;2022-07-18T15:43:56;31.60;14.10
13198;DHT22;6664;52.514;13.440;2022-07-18T15:46:24;31.90;13.40
13198;DHT22;6664;52.514;13.440;2022-07-18T15:48:51;32.00;13.00
13198;DHT22;6664;52.514;13.440;2022-07-18T15:51:18;31.80;12.90
13198;DHT22;6664;52.514;13.440;2022-07-18T15:53:45;32.30;13.10
13198;DHT22;6664;52.514;13.440;2022-07-18T15:56:12;32.60;12.80
13198;DHT22;6664;52.514;13.440;2022-07-18T15:58:38;32.50;12.60
13198;DHT22;6664;52.514;13.440;2022-07-18T16:01:08;32.30;12.50
13198;DHT22;6664;52.514;13.440;2022-07-18T16:03:39;31.80;12.90
13198;DHT22;6664;52.514;13.440;2022-07-18T16:06:09;31.40;13.20
13198;DHT22;6664;52.514;13.440;2022-07-18T16:08:38;31.60;13.50
13198;DHT22;6664;52.514;13.440;2022-07-18T16:11:07;32.20;13.10
13198;DHT22;6664;52.514;13.440;2022-07-18T16:13:37;32.40;13.20
13198;DHT22;6664;52.514;13.440;2022-07-18T16:16:05;32.10;13.10
13198;DHT22;6664;52.514;13.440;2022-07-18T16:18:32;32.10;13.00